Time;durP1;ratioP1;P1;durP2;ratioP2;P2;SDS_P1;SDS_P2;PMS_P1;PMS_P2;Temp;Humidity;BMP_temperature;BMP_pressure;BME280_temperature;BME280_humidity;BME280_pressure;Samples;Min_cycle;Max_cycle;Signal;HPM_P1;HPM_P2
2023/09/06 00:00:33;;;;;;;6.20;4.10;;;21.90;87.90;;;;;;5073227;28;20058;-34
2023/09/06 00:03:00;;;;;;;5.72;4.05;;;20.50;87.20;;;;;;5072836;28;20079;-35
2023/09/06 00:05:29;;;;;;;4.90;3.83;;;22.10;88.40;;;;;;5072973;28;20127;-38
2023/09/06 00:07:56;;;;;;;7.15;4.47;;;21.60;88.60;;;;;;5072208;28;20050;-37
2023/09/06 00:10:23;;;;;;;5.50;4.03;;;;;;;;;;5073030;28;20227;-34
2023/09/06 00:12:50;;;;;;;5.93;4.03;;;21.60;88.10;;;;;;5072746;28;20127;-30
2023/09/06 00:15:18;;;;;;;5.57;3.92;;;21.20;88.40;;;;;;5072440;28;20131;-37
2023/09/06 00:17:46;;;;;;;4.07;3.38;;;21.40;71.20;;;;;;5072814;28;20496;-35
2023/09/06 00:20:20;;;;;;;4.82;3.55;;;;;;;;;;5072453;28;20083;-40
2023/09/06 00:22:48;;;;;;;6.38;4.03;;;;;;;;;;5057323;28;20045;-35
2023/09/06 00:25:15;;;;;;;6.22;4.00;;;21.00;87.70;;;;;;5052373;28;20076;-35
2023/09/06 00:27:42;;;;;;;5.40;3.97;;;21.20;87.50;;;;;;5052447;28;20049;-36
2023/09/06 00:30:09;;;;;;;5.22;3.53;;;21.10;88.30;;;;;;5052402;28;20133;-36
2023/09/06 00:32:36;;;;;;;5.88;4.00;;;21.10;87.40;;;;;;5052538;28;20148;-36
2023/09/06 00:35:06;;;;;;;5.22;3.63;;;21.10;88.30;;;;;;5054828;28;20128;-38
2023/09/06 00:37:36;;;;;;;5.53;3.78;;;21.40;87.90;;;;;;5071777;28;20056;-37
2023/09/06 00:40:10;;;;;;;5.28;3.60;;;21.20;83.70;;;;;;5072053;28;20048;-38
2023/09/06 00:42:37;;;;;;;5.40;4.00;;;;;;;;;;5065945;28;20053;-36
2023/09/06 00:45:04;;;;;;;4.80;3.58;;;21.30;74.50;;;;;;5052055;28;20391;-38
2023/09/06 00:47:31;;;;;;;4.60;3.63;;;21.00;87.80;;;;;;5052413;28;20477;-36
2023/09/06 00:49:57;;;;;;;6.93;3.67;;;21.20;73.80;;;;;;5064569;28;20498;-36
2023/09/06 00:52:26;;;;;;;5.15;3.78;;;21.30;71.10;;;;;;5071599;28;20136;-35
2023/09/06 00:54:52;;;;;;;5.30;3.63;;;20.50;79.70;;;;;;5072061;28;20412;-35
2023/09/06 00:57:19;;;;;;;4.30;3.50;;;22.50;88.10;;;;;;5072271;28;20135;-38
2023/09/06 00:59:46;;;;;;;5.30;4.05;;;20.90;87.60;;;;;;5071856;28;20568;-37
2023/09/06 01:02:13;;;;;;;5.80;4.15;;;20.70;87.30;;;;;;5071027;28;20136;-36
2023/09/06 01:04:41;;;;;;;4.80;3.50;;;21.20;88.30;;;;;;5071416;28;20083;-37
2023/09/06 01:07:08;;;;;;;4.55;3.65;;;21.10;83.10;;;;;;5072012;28;20052;-38
2023/09/06 01:09:36;;;;;;;5.00;3.75;;;22.40;88.10;;;;;;5071987;28;20087;-36
2023/09/06 01:12:02;;;;;;;5.15;3.83;;;21.70;88.10;;;;;;5072108;28;20136;-34
2023/09/06 01:14:29;;;;;;;5.13;3.72;;;21.40;83.70;;;;;;5071299;28;20570;-34
2023/09/06 01:16:56;;;;;;;6.72;3.80;;;21.40;87.40;;;;;;5062477;28;20143;-34
2023/09/06 01:19:24;;;;;;;4.55;3.45;;;;;;;;;;5051962;28;20132;-32
2023/09/06 01:21:53;;;;;;;4.10;3.28;;;21.10;87.40;;;;;;5051394;28;20055;-36
2023/09/06 01:24:21;;;;;;;4.75;3.60;;;21.80;88.00;;;;;;5051436;28;20136;-37
2023/09/06 01:26:48;;;;;;;4.15;3.45;;;21.20;87.40;;;;;;5051973;28;20147;-34
2023/09/06 01:29:15;;;;;;;4.60;3.63;;;20.70;87.20;;;;;;5051821;28;20132;-36
2023/09/06 01:31:42;;;;;;;4.85;3.33;;;;;;;;;;5069298;28;20123;-33
2023/09/06 01:34:09;;;;;;;5.57;3.53;;;22.20;87.90;;;;;;5071292;28;20132;-35
2023/09/06 01:36:36;;;;;;;4.13;3.63;;;;;;;;;;5070973;28;20414;-35
2023/09/06 01:39:04;;;;;;;4.28;3.30;;;21.20;87.70;;;;;;5063788;28;20123;-34
2023/09/06 01:41:32;;;;;;;4.57;3.60;;;20.30;86.80;;;;;;5071799;28;20437;-36
2023/09/06 01:44:00;;;;;;;4.35;3.42;;;21.70;88.40;;;;;;5071569;28;20083;-35
2023/09/06 01:46:27;;;;;;;3.78;3.20;;;21.70;87.80;;;;;;5066628;28;20497;-37
2023/09/06 01:48:54;;;;;;;4.93;3.40;;;;;;;;;;5064967;28;20144;-33
2023/09/06 01:51:22;;;;;;;5.20;3.58;;;21.30;88.10;;;;;;5065092;28;20411;-37
2023/09/06 01:53:49;;;;;;;4.30;3.38;;;21.20;88.10;;;;;;5062695;28;20060;-37
2023/09/06 01:56:15;;;;;;;4.97;2.95;;;21.10;87.30;;;;;;5063797;28;20124;-40
2023/09/06 01:58:44;;;;;;;4.63;3.60;;;21.10;71.50;;;;;;5065317;28;20105;-37
2023/09/06 02:01:11;;;;;;;4.53;3.42;;;;;;;;;;5063445;28;20072;-36
2023/09/06 02:03:37;;;;;;;3.95;3.20;;;21.10;87.00;;;;;;5064876;28;20501;-38
2023/09/06 02:06:05;;;;;;;4.00;3.47;;;;;;;;;;5063903;28;20076;-34
2023/09/06 02:08:32;;;;;;;4.13;3.08;;;20.50;86.80;;;;;;5064338;28;20057;-36
2023/09/06 02:10:59;;;;;;;5.38;3.53;;;;;;;;;;5064909;28;20049;-36
2023/09/06 02:13:25;;;;;;;4.93;3.53;;;21.70;74.00;;;;;;5065515;28;20135;-37
2023/09/06 02:15:53;;;;;;;4.13;3.30;;;21.10;87.20;;;;;;5063886;28;20128;-40
2023/09/06 02:18:20;;;;;;;3.40;3.00;;;21.20;87.40;;;;;;5064001;28;20541;-37
2023/09/06 02:20:49;;;;;;;4.00;3.10;;;;;;;;;;5054869;28;20522;-36
2023/09/06 02:23:16;;;;;;;4.13;3.17;;;;;;;;;;5064963;28;20054;-38
2023/09/06 02:25:44;;;;;;;4.20;3.05;;;20.80;87.70;;;;;;5074749;28;20147;-39
2023/09/06 02:28:12;;;;;;;3.95;2.92;;;;;;;;;;5074577;28;20051;-35
2023/09/06 02:30:38;;;;;;;3.42;2.97;;;21.60;85.80;;;;;;5074717;28;20052;-36
2023/09/06 02:33:09;;;;;;;4.07;3.13;;;;;;;;;;5074289;28;20585;-35
2023/09/06 02:35:40;;;;;;;3.90;3.10;;;21.80;88.10;;;;;;5074676;28;20684;-40
2023/09/06 02:38:06;;;;;;;4.45;3.33;;;21.50;87.00;;;;;;5073147;28;20062;-37
2023/09/06 02:40:34;;;;;;;3.67;3.03;;;;;;;;;;5061785;28;20481;-34
2023/09/06 02:43:01;;;;;;;3.47;2.88;;;21.40;87.40;;;;;;5074067;28;20037;-36
2023/09/06 02:45:36;;;;;;;3.47;2.92;;;21.00;74.40;;;;;;5074367;28;20541;-37
2023/09/06 02:48:06;;;;;;;3.67;2.80;;;20.70;87.60;;;;;;5074242;28;20131;-36
2023/09/06 02:50:35;;;;;;;4.15;3.08;;;21.30;70.40;;;;;;5074495;28;20099;-36
2023/09/06 02:53:03;;;;;;;4.45;3.35;;;21.20;77.90;;;;;;5074142;28;20052;-35
2023/09/06 02:55:33;;;;;;;3.38;2.85;;;;;;;;;;5064867;28;20494;-33
2023/09/06 02:57:59;;;;;;;4.32;3.10;;;22.10;87.50;;;;;;5053819;28;20140;-36
2023/09/06 03:00:29;;;;;;;4.75;3.30;;;;;;;;;;5054302;28;20087;-34
2023/09/06 03:02:55;;;;;;;3.50;3.10;;;21.00;87.80;;;;;;5054070;28;20414;-39
2023/09/06 03:05:22;;;;;;;3.92;3.20;;;;;;;;;;5053963;28;20141;-37
2023/09/06 03:07:53;;;;;;;4.25;2.78;;;21.70;87.60;;;;;;5053896;28;20084;-35
2023/09/06 03:10:20;;;;;;;4.53;3.00;;;21.00;87.20;;;;;;5054016;28;20130;-36
2023/09/06 03:12:48;;;;;;;3.47;3.00;;;21.30;87.80;;;;;;5055076;28;20080;-35
2023/09/06 03:15:15;;;;;;;3.50;3.10;;;21.20;70.30;;;;;;5053619;28;20045;-33
2023/09/06 03:17:46;;;;;;;3.83;2.88;;;21.50;88.00;;;;;;5054058;28;20049;-36
2023/09/06 03:20:20;;;;;;;3.83;2.97;;;20.70;83.30;;;;;;5053792;28;20461;-37
2023/09/06 03:22:47;;;;;;;3.38;2.85;;;;;;;;;;5053467;28;20049;-35
2023/09/06 03:25:16;;;;;;;4.05;3.03;;;21.20;70.30;;;;;;5053573;28;20049;-35
2023/09/06 03:27:43;;;;;;;4.38;3.00;;;;;;;;;;5060972;28;20136;-38
2023/09/06 03:30:12;;;;;;;3.72;2.90;;;21.20;86.80;;;;;;5073596;28;20082;-35
2023/09/06 03:32:42;;;;;;;4.28;2.95;;;;;;;;;;5072980;28;20413;-37
2023/09/06 03:35:09;;;;;;;4.05;3.00;;;20.80;87.50;;;;;;5073459;28;20076;-39
2023/09/06 03:37:35;;;;;;;4.07;2.85;;;21.70;82.20;;;;;;5073147;28;20106;-38
2023/09/06 03:40:02;;;;;;;3.15;2.80;;;22.20;87.40;;;;;;5073434;28;20120;-38
2023/09/06 03:42:34;;;;;;;4.05;3.05;;;20.70;86.90;;;;;;5073117;28;20132;-38
2023/09/06 03:45:02;;;;;;;3.50;2.92;;;21.00;86.70;;;;;;5072083;28;20131;-39
2023/09/06 03:47:29;;;;;;;3.75;2.70;;;20.30;86.30;;;;;;5073261;28;20450;-35
2023/09/06 03:49:56;;;;;;;3.72;3.25;;;20.70;73.40;;;;;;5072909;28;20105;-36
2023/09/06 03:52:26;;;;;;;3.03;2.60;;;21.30;84.10;;;;;;5073414;28;20052;-36
2023/09/06 03:54:53;;;;;;;3.40;2.70;;;20.80;87.40;;;;;;5073323;28;20127;-36
2023/09/06 03:57:22;;;;;;;3.45;3.00;;;;;;;;;;5073334;28;20068;-32
2023/09/06 03:59:50;;;;;;;3.03;2.70;;;21.70;87.80;;;;;;5065831;28;20059;-38
2023/09/06 04:02:17;;;;;;;3.00;2.70;;;21.00;86.70;;;;;;5052596;28;20053;-38
2023/09/06 04:04:43;;;;;;;3.05;2.53;;;20.90;73.90;;;;;;5052712;28;20123;-37
2023/09/06 04:07:13;;;;;;;3.33;2.70;;;;;;;;;;5053242;28;20388;-35
2023/09/06 04:09:42;;;;;;;3.08;2.70;;;;;;;;;;5052809;28;20071;-36
2023/09/06 04:12:09;;;;;;;3.83;2.75;;;21.30;86.70;;;;;;5052697;28;20052;-36
2023/09/06 04:14:38;;;;;;;3.20;2.72;;;21.00;86.70;;;;;;5052511;28;20129;-35
2023/09/06 04:17:07;;;;;;;3.15;2.67;;;21.40;83.00;;;;;;5069014;28;20389;-36
2023/09/06 04:19:34;;;;;;;3.85;2.67;;;21.30;87.70;;;;;;5072845;28;20048;-37
2023/09/06 04:22:02;;;;;;;3.10;2.70;;;;;;;;;;5072556;28;20051;-33
2023/09/06 04:24:29;;;;;;;3.28;2.88;;;;;;;;;;5072146;28;20064;-36
2023/09/06 04:26:56;;;;;;;3.92;2.60;;;21.40;86.90;;;;;;5072422;28;20601;-36
2023/09/06 04:29:24;;;;;;;3.92;2.65;;;;;;;;;;5072395;28;20139;-35
2023/09/06 04:31:51;;;;;;;3.17;2.80;;;;;;;;;;5070950;28;20106;-38
2023/09/06 04:34:19;;;;;;;3.22;2.67;;;21.30;87.70;;;;;;5071443;28;20135;-36
2023/09/06 04:36:46;;;;;;;2.50;2.30;;;20.60;86.90;;;;;;5071854;28;20135;-36
2023/09/06 04:39:12;;;;;;;3.30;2.45;;;20.80;86.60;;;;;;5072085;28;20131;-30
2023/09/06 04:41:39;;;;;;;3.78;2.72;;;;;;;;;;5072378;28;20076;-35
2023/09/06 04:44:07;;;;;;;2.88;2.50;;;;;;;;;;5071759;28;20084;-31
2023/09/06 04:46:33;;;;;;;3.00;2.50;;;20.60;73.00;;;;;;5072163;28;20067;-32
2023/09/06 04:49:00;;;;;;;4.13;2.40;;;20.70;86.30;;;;;;5061976;28;20133;-30
2023/09/06 04:51:28;;;;;;;4.35;2.90;;;21.30;87.20;;;;;;5052304;28;20127;-32
2023/09/06 04:53:55;;;;;;;3.97;2.38;;;21.00;75.30;;;;;;5051778;28;20136;-32
2023/09/06 04:56:22;;;;;;;3.60;2.75;;;;;;;;;;5052061;28;20575;-33
2023/09/06 04:58:49;;;;;;;3.42;2.58;;;21.30;87.60;;;;;;5052087;28;20052;-31
2023/09/06 05:01:16;;;;;;;2.50;2.20;;;21.40;87.60;;;;;;5052129;28;20044;-31
2023/09/06 05:03:44;;;;;;;2.80;2.50;;;20.80;86.60;;;;;;5051759;28;20135;-32
2023/09/06 05:06:11;;;;;;;3.10;2.30;;;22.00;87.20;;;;;;5052839;28;20044;-30
2023/09/06 05:08:39;;;;;;;2.60;2.40;;;21.70;77.30;;;;;;5051988;28;20106;-33
2023/09/06 05:11:06;;;;;;;2.80;2.30;;;21.30;75.30;;;;;;5051754;28;20131;-33
2023/09/06 05:13:33;;;;;;;3.25;2.20;;;20.70;74.70;;;;;;5051524;28;20051;-31
2023/09/06 05:16:01;;;;;;;2.67;2.20;;;20.90;86.60;;;;;;5051809;28;20145;-31
2023/09/06 05:18:28;;;;;;;2.70;2.45;;;20.50;86.40;;;;;;5051975;28;20045;-31
2023/09/06 05:20:55;;;;;;;2.60;2.33;;;;;;;;;;5052912;28;20128;-33
2023/09/06 05:23:23;;;;;;;3.35;2.42;;;;;;;;;;5051351;28;20487;-33
2023/09/06 05:25:51;;;;;;;2.85;2.10;;;21.30;87.60;;;;;;5051614;28;20128;-31
2023/09/06 05:28:18;;;;;;;2.40;2.20;;;20.20;86.20;;;;;;5051499;28;20132;-31
2023/09/06 05:30:45;;;;;;;2.30;2.08;;;20.80;86.50;;;;;;5051571;28;20704;-31
2023/09/06 05:33:12;;;;;;;2.42;2.22;;;21.00;75.10;;;;;;5067845;28;20106;-30
2023/09/06 05:35:40;;;;;;;3.08;2.15;;;20.80;79.50;;;;;;5071438;28;20044;-31
2023/09/06 05:38:09;;;;;;;2.78;2.40;;;20.90;75.10;;;;;;5059709;28;20068;-33
2023/09/06 05:40:35;;;;;;;2.75;2.25;;;20.90;87.40;;;;;;5070726;28;20563;-30
2023/09/06 05:43:04;;;;;;;2.80;2.55;;;21.20;87.10;;;;;;5071558;28;20091;-30
2023/09/06 05:45:31;;;;;;;3.17;2.30;;;;;;;;;;5071132;28;20059;-35
2023/09/06 05:47:58;;;;;;;2.63;2.28;;;21.10;86.70;;;;;;5071540;28;20131;-30
2023/09/06 05:50:26;;;;;;;2.38;2.08;;;21.50;87.80;;;;;;5071424;28;20094;-30
2023/09/06 05:52:54;;;;;;;2.92;2.45;;;;;;;;;;5070669;28;20107;-35
2023/09/06 05:55:21;;;;;;;3.10;2.30;;;20.10;86.30;;;;;;5070821;28;20078;-30
2023/09/06 05:57:48;;;;;;;3.40;2.72;;;;;;;;;;5071553;28;20044;-35
2023/09/06 06:00:17;;;;;;;3.25;2.30;;;21.00;69.80;;;;;;5071287;28;20136;-30
2023/09/06 06:02:44;;;;;;;3.25;2.33;;;;;;;;;;5068019;28;20494;-35
2023/09/06 06:05:12;;;;;;;2.75;2.40;;;20.20;86.10;;;;;;5051109;28;20128;-35
2023/09/06 06:07:39;;;;;;;2.35;2.13;;;21.40;87.10;;;;;;5051017;28;20049;-36
2023/09/06 06:10:09;;;;;;;2.50;2.13;;;20.80;86.50;;;;;;5051442;28;20128;-38
2023/09/06 06:12:37;;;;;;;3.05;2.17;;;;;;;;;;5051091;28;20175;-35
2023/09/06 06:15:05;;;;;;;2.45;2.03;;;20.70;72.20;;;;;;5051200;28;20107;-34
2023/09/06 06:17:33;;;;;;;3.88;2.15;;;20.90;69.70;;;;;;5062821;28;20131;-38
2023/09/06 06:19:59;;;;;;;3.78;2.22;;;20.60;78.90;;;;;;5071142;28;20140;-38
2023/09/06 06:22:27;;;;;;;2.78;2.30;;;;;;;;;;5070450;28;20076;-35
2023/09/06 06:24:53;;;;;;;2.80;2.20;;;21.90;87.40;;;;;;5067438;28;20128;-34
2023/09/06 06:27:20;;;;;;;3.28;2.30;;;21.80;77.80;;;;;;5058583;28;20200;-38
2023/09/06 06:29:47;;;;;;;3.05;2.15;;;21.00;76.60;;;;;;5061783;28;20127;-36
2023/09/06 06:32:13;;;;;;;2.60;2.20;;;20.20;78.50;;;;;;5055122;28;20073;-35
2023/09/06 06:34:43;;;;;;;3.15;2.10;;;21.80;87.10;;;;;;5057409;28;20135;-36
2023/09/06 06:37:10;;;;;;;2.33;2.10;;;20.20;87.10;;;;;;5064262;28;20049;-37
2023/09/06 06:39:37;;;;;;;2.92;2.28;;;;;;;;;;5065147;28;20123;-32
2023/09/06 06:42:04;;;;;;;2.70;2.20;;;20.90;80.80;;;;;;5074078;28;20098;-36
2023/09/06 06:44:31;;;;;;;2.47;2.17;;;;;;;;;;5060709;28;20124;-33
2023/09/06 06:46:58;;;;;;;2.45;2.17;;;;;;;;;;5069978;28;20132;-37
2023/09/06 06:49:25;;;;;;;2.70;1.98;;;;;;;;;;5068985;28;20127;-36
2023/09/06 06:51:53;;;;;;;2.15;1.95;;;21.10;77.10;;;;;;5064655;28;20128;-37
2023/09/06 06:54:21;;;;;;;2.33;2.05;;;21.10;87.00;;;;;;5061931;28;20488;-36
2023/09/06 06:56:48;;;;;;;2.30;2.10;;;;;;;;;;5054578;28;20055;-35
2023/09/06 06:59:14;;;;;;;2.22;1.88;;;20.80;87.40;;;;;;5054451;28;20132;-36
2023/09/06 07:01:41;;;;;;;3.33;2.08;;;20.20;86.60;;;;;;5054340;28;20513;-36
2023/09/06 07:04:08;;;;;;;2.75;1.98;;;20.00;79.50;;;;;;5072618;28;20135;-35
2023/09/06 07:06:35;;;;;;;2.53;1.90;;;20.50;86.70;;;;;;5074133;28;20127;-38
2023/09/06 07:09:04;;;;;;;3.58;1.95;;;20.70;82.60;;;;;;5073941;28;20485;-34
2023/09/06 07:11:31;;;;;;;2.08;1.88;;;21.30;86.80;;;;;;5074124;28;20067;-35
2023/09/06 07:13:58;;;;;;;2.30;1.85;;;;;;;;;;5073897;28;20048;-35
2023/09/06 07:16:25;;;;;;;2.13;1.92;;;21.10;86.70;;;;;;5070512;28;20120;-32
2023/09/06 07:18:51;;;;;;;2.70;2.13;;;20.80;86.60;;;;;;5061615;28;20127;-30
2023/09/06 07:21:19;;;;;;;2.80;1.70;;;21.30;70.10;;;;;;5061190;28;20115;-34
2023/09/06 07:23:46;;;;;;;2.63;2.10;;;21.40;86.90;;;;;;5070866;28;20056;-30
2023/09/06 07:26:14;;;;;;;3.83;1.92;;;21.30;70.70;;;;;;5073732;28;20440;-33
2023/09/06 07:28:42;;;;;;;2.47;1.90;;;21.50;87.80;;;;;;5072593;28;20143;-31
2023/09/06 07:31:09;;;;;;;2.95;1.90;;;20.80;86.70;;;;;;5069163;28;20136;-30
2023/09/06 07:33:36;;;;;;;2.55;1.70;;;21.00;87.20;;;;;;5068138;28;20131;-30
2023/09/06 07:36:04;;;;;;;2.53;1.90;;;;;;;;;;5055150;28;20131;-35
2023/09/06 07:38:31;;;;;;;2.33;1.90;;;;;;;;;;5073608;28;20110;-31
2023/09/06 07:40:58;;;;;;;2.22;1.75;;;20.80;87.90;;;;;;5068669;28;20124;-33
2023/09/06 07:43:28;;;;;;;2.45;1.85;;;20.60;83.50;;;;;;5062249;28;20056;-33
2023/09/06 07:45:56;;;;;;;2.47;2.08;;;21.00;70.10;;;;;;5063005;28;20041;-35
2023/09/06 07:48:24;;;;;;;2.40;1.80;;;;;;;;;;5062752;28;20052;-33
2023/09/06 07:50:51;;;;;;;3.58;1.90;;;20.60;86.70;;;;;;5059831;28;20127;-30
2023/09/06 07:53:18;;;;;;;2.60;1.92;;;;;;;;;;5052970;28;20045;-31
2023/09/06 07:55:45;;;;;;;2.20;1.75;;;;;;;;;;5051406;28;20529;-31
2023/09/06 07:58:12;;;;;;;1.90;1.70;;;20.80;86.80;;;;;;5053319;28;20059;-30
2023/09/06 08:00:40;;;;;;;2.92;2.00;;;21.60;87.20;;;;;;5053517;28;20129;-30
2023/09/06 08:03:07;;;;;;;3.78;1.90;;;22.20;87.60;;;;;;5073209;28;20045;-30
2023/09/06 08:05:35;;;;;;;3.47;1.73;;;20.50;72.50;;;;;;5065833;28;20128;-31
2023/09/06 08:08:02;;;;;;;2.70;1.98;;;;;;;;;;5061120;28;20516;-32
2023/09/06 08:10:29;;;;;;;2.30;2.00;;;20.80;87.60;;;;;;5060673;28;20048;-32
2023/09/06 08:12:56;;;;;;;6.88;2.15;;;;;;;;;;5060912;28;20123;-33
2023/09/06 08:15:23;;;;;;;3.28;1.95;;;21.20;87.40;;;;;;5061081;28;20514;-31
2023/09/06 08:17:52;;;;;;;2.63;1.77;;;21.70;85.50;;;;;;5058549;28;20045;-32
2023/09/06 08:20:19;;;;;;;3.78;1.90;;;21.40;87.10;;;;;;5063530;28;20464;-31
2023/09/06 08:22:45;;;;;;;3.30;1.88;;;21.50;87.60;;;;;;5062005;28;20044;-30
2023/09/06 08:25:13;;;;;;;5.10;2.00;;;21.30;80.00;;;;;;5060736;28;20041;-33
2023/09/06 08:27:39;;;;;;;3.05;2.15;;;21.10;87.10;;;;;;5066261;28;20055;-31
2023/09/06 08:30:10;;;;;;;4.72;2.05;;;21.10;70.30;;;;;;5072603;28;20123;-33
2023/09/06 08:32:37;;;;;;;3.00;1.88;;;21.30;84.40;;;;;;5072497;28;20110;-31
2023/09/06 08:35:06;;;;;;;3.95;2.00;;;21.00;87.80;;;;;;5055482;28;20131;-31
2023/09/06 08:37:33;;;;;;;4.13;1.98;;;;;;;;;;5066198;28;20040;-33
2023/09/06 08:39:59;;;;;;;2.95;2.10;;;21.30;87.20;;;;;;5072220;28;20139;-32
2023/09/06 08:42:27;;;;;;;3.22;2.17;;;21.20;87.00;;;;;;5071939;28;20132;-32
2023/09/06 08:44:54;;;;;;;3.67;2.20;;;21.30;87.20;;;;;;5072310;28;20049;-32
2023/09/06 08:47:21;;;;;;;3.45;2.03;;;;;;;;;;5072245;28;20127;-36
2023/09/06 08:49:48;;;;;;;3.10;2.20;;;21.40;87.20;;;;;;5064893;28;20055;-31
2023/09/06 08:52:16;;;;;;;3.88;2.00;;;20.60;83.90;;;;;;5052171;28;20123;-37
2023/09/06 08:54:44;;;;;;;3.70;2.40;;;19.90;71.20;;;;;;5051507;28;20469;-36
2023/09/06 08:57:13;;;;;;;5.07;2.10;;;;;;;;;;5051336;28;20056;-34
2023/09/06 08:59:40;;;;;;;2.85;2.15;;;20.80;86.90;;;;;;5052254;28;20056;-37
2023/09/06 09:02:10;;;;;;;4.30;2.30;;;21.60;87.40;;;;;;5052026;28;20080;-36
2023/09/06 09:04:40;;;;;;;3.42;2.10;;;21.60;87.70;;;;;;5051812;28;20052;-36
2023/09/06 09:07:08;;;;;;;5.07;2.20;;;;;;;;;;5053018;28;20048;-35
2023/09/06 09:09:36;;;;;;;3.83;2.17;;;20.90;87.00;;;;;;5052147;28;20140;-36
2023/09/06 09:12:03;;;;;;;5.07;2.35;;;20.60;87.70;;;;;;5052075;28;20132;-39
2023/09/06 09:14:30;;;;;;;3.78;2.22;;;21.50;80.30;;;;;;5051552;28;20049;-38
2023/09/06 09:16:57;;;;;;;5.03;2.20;;;21.20;87.90;;;;;;5057983;28;20119;-36
2023/09/06 09:19:24;;;;;;;5.45;2.22;;;;;;;;;;5072182;28;20135;-34
2023/09/06 09:21:51;;;;;;;3.92;2.40;;;20.50;86.90;;;;;;5071291;28;20573;-36
2023/09/06 09:24:25;;;;;;;4.15;2.38;;;20.00;86.60;;;;;;5051695;28;20059;-35
2023/09/06 09:26:53;;;;;;;3.50;2.20;;;21.00;87.10;;;;;;5051829;28;20551;-30
2023/09/06 09:29:20;;;;;;;8.85;2.50;;;;;;;;;;5051768;28;20129;-35
2023/09/06 09:31:47;;;;;;;4.43;2.13;;;21.30;87.10;;;;;;5051856;28;20124;-30
2023/09/06 09:34:14;;;;;;;3.78;2.08;;;;;;;;;;5051079;28;20441;-30
2023/09/06 09:36:41;;;;;;;4.53;2.30;;;20.70;87.10;;;;;;5057682;28;20106;-31
2023/09/06 09:39:09;;;;;;;3.90;2.20;;;;;;;;;;5060544;28;20045;-35
2023/09/06 09:41:35;;;;;;;3.80;2.15;;;20.50;86.70;;;;;;5067351;28;20144;-31
2023/09/06 09:44:13;;;;;;;3.85;2.08;;;21.20;70.40;;;;;;5071304;28;20465;-35
2023/09/06 09:46:40;;;;;;;4.15;2.20;;;21.00;86.90;;;;;;5071710;28;20049;-30
2023/09/06 09:49:07;;;;;;;3.38;2.20;;;22.20;85.70;;;;;;5071595;28;20053;-30
2023/09/06 09:51:33;;;;;;;4.35;2.40;;;20.50;85.00;;;;;;5071766;28;20131;-30
2023/09/06 09:54:00;;;;;;;3.38;2.10;;;21.10;87.70;;;;;;5070619;28;20132;-31
2023/09/06 09:56:28;;;;;;;3.00;1.95;;;21.00;77.70;;;;;;5051637;28;20132;-32
2023/09/06 09:58:55;;;;;;;3.80;2.25;;;;;;;;;;5050844;28;20132;-35
2023/09/06 10:01:23;;;;;;;3.15;2.08;;;22.00;88.00;;;;;;5051565;28;20049;-39
2023/09/06 10:03:50;;;;;;;3.97;2.10;;;21.20;87.10;;;;;;5057689;28;20123;-36
2023/09/06 10:06:17;;;;;;;3.17;2.20;;;;;;;;;;5059905;28;20137;-33
2023/09/06 10:08:45;;;;;;;5.13;2.20;;;21.10;86.70;;;;;;5065350;28;20127;-36
2023/09/06 10:11:12;;;;;;;3.47;2.28;;;21.20;85.70;;;;;;5063636;28;20053;-36
2023/09/06 10:13:39;;;;;;;4.72;2.20;;;21.70;87.20;;;;;;5065662;28;20153;-39
2023/09/06 10:16:07;;;;;;;4.50;2.40;;;21.30;70.10;;;;;;5064161;28;20053;-33
2023/09/06 10:18:35;;;;;;;3.72;2.00;;;21.30;70.00;;;;;;5064287;28;20087;-34
2023/09/06 10:21:04;;;;;;;4.10;2.15;;;21.60;86.70;;;;;;5063679;28;20127;-36
2023/09/06 10:23:31;;;;;;;3.83;2.50;;;21.40;86.50;;;;;;5064268;28;20045;-37
2023/09/06 10:26:00;;;;;;;3.00;2.10;;;21.30;77.00;;;;;;5065804;28;20048;-35
2023/09/06 10:28:31;;;;;;;5.68;2.38;;;;;;;;;;5059097;28;20128;-35
2023/09/06 10:31:07;;;;;;;3.38;2.15;;;21.60;87.30;;;;;;5062793;28;20713;-35
2023/09/06 10:34:00;;;;;;;4.30;2.13;;;21.40;69.90;;;;;;5063827;28;20125;-34
2023/09/06 10:36:30;;;;;;;2.90;2.20;;;21.10;82.00;;;;;;5061824;28;20131;-37
2023/09/06 10:39:14;;;;;;;3.60;2.00;;;21.80;79.70;;;;;;5054694;28;20053;-31
2023/09/06 10:41:41;;;;;;;3.92;2.13;;;;;;;;;;5071286;28;20056;-31
2023/09/06 10:44:12;;;;;;;4.32;2.40;;;21.70;87.00;;;;;;5061047;28;20124;-31
2023/09/06 10:46:39;;;;;;;3.92;2.10;;;22.00;79.90;;;;;;5054557;28;20132;-32
2023/09/06 10:49:19;;;;;;;4.03;2.25;;;21.10;86.50;;;;;;5074888;28;20122;-30
2023/09/06 10:52:02;;;;;;;5.38;2.40;;;21.90;87.50;;;;;;5074156;28;20490;-30
2023/09/06 10:54:34;;;;;;;5.80;2.42;;;20.80;86.00;;;;;;5074399;28;20049;-30
2023/09/06 10:57:03;;;;;;;2.85;2.00;;;21.40;69.80;;;;;;5074016;28;20068;-35
2023/09/06 10:59:29;;;;;;;3.00;2.20;;;20.50;85.90;;;;;;5074488;28;20055;-31
2023/09/06 11:02:08;;;;;;;4.00;2.00;;;21.20;86.20;;;;;;5074100;28;20131;-30
2023/09/06 11:04:36;;;;;;;3.40;2.22;;;21.60;86.40;;;;;;5074449;28;20053;-31
2023/09/06 11:07:09;;;;;;;4.05;2.17;;;21.50;87.00;;;;;;5074162;28;20084;-32
2023/09/06 11:09:37;;;;;;;3.53;1.90;;;21.70;86.30;;;;;;5068995;28;20053;-31
2023/09/06 11:12:04;;;;;;;3.20;2.20;;;22.10;74.50;;;;;;5062555;28;20448;-35
2023/09/06 11:14:31;;;;;;;2.75;1.80;;;;;;;;;;5062437;28;20103;-36
2023/09/06 11:16:58;;;;;;;3.13;2.20;;;21.30;81.20;;;;;;5064282;28;20120;-31
2023/09/06 11:19:29;;;;;;;6.18;2.20;;;21.70;86.50;;;;;;5063897;28;20120;-31
2023/09/06 11:22:06;;;;;;;3.80;2.15;;;21.60;69.60;;;;;;5053418;28;20525;-35
2023/09/06 11:24:34;;;;;;;3.22;2.03;;;;;;;;;;5053058;28;20461;-31
2023/09/06 11:27:03;;;;;;;3.05;1.90;;;21.40;86.30;;;;;;5053194;28;20510;-32
2023/09/06 11:29:30;;;;;;;3.22;1.92;;;22.10;73.30;;;;;;5053426;28;20045;-31
2023/09/06 11:32:08;;;;;;;3.83;1.90;;;21.30;86.60;;;;;;5053382;28;20120;-32
2023/09/06 11:34:42;;;;;;;3.70;2.20;;;21.80;86.90;;;;;;5056935;28;20088;-31
2023/09/06 11:37:12;;;;;;;3.83;1.73;;;21.60;69.50;;;;;;5061926;28;20059;-32
2023/09/06 11:39:40;;;;;;;3.33;1.85;;;21.60;85.80;;;;;;5062678;28;20128;-31
2023/09/06 11:42:08;;;;;;;3.50;1.90;;;22.00;81.50;;;;;;5063879;28;20053;-34
2023/09/06 11:44:39;;;;;;;3.47;2.00;;;21.70;86.60;;;;;;5059670;28;20060;-31
2023/09/06 11:47:06;;;;;;;5.18;2.00;;;20.90;85.50;;;;;;5063986;28;20053;-31
2023/09/06 11:49:34;;;;;;;3.20;2.33;;;21.70;86.20;;;;;;5062217;28;20473;-31
2023/09/06 11:52:05;;;;;;;3.95;2.10;;;;;;;;;;5064316;28;20083;-39
2023/09/06 11:54:33;;;;;;;2.75;1.70;;;21.80;86.40;;;;;;5062108;28;20060;-31
2023/09/06 11:56:59;;;;;;;2.58;1.70;;;21.40;85.60;;;;;;5063147;28;20127;-31
2023/09/06 11:59:29;;;;;;;3.38;2.00;;;21.80;86.20;;;;;;5066437;28;20102;-31
2023/09/06 12:01:58;;;;;;;3.08;1.70;;;21.60;85.60;;;;;;5056755;28;20514;-31
2023/09/06 12:04:28;;;;;;;3.33;1.55;;;;;;;;;;5069806;28;20057;-33
2023/09/06 12:06:56;;;;;;;4.32;1.90;;;21.40;69.20;;;;;;5064238;28;20045;-34
2023/09/06 12:09:23;;;;;;;2.90;1.80;;;21.50;84.10;;;;;;5063526;28;20095;-31
2023/09/06 12:11:51;;;;;;;3.40;2.15;;;21.90;85.80;;;;;;5063697;28;20588;-31
2023/09/06 12:14:18;;;;;;;3.65;2.03;;;21.60;86.10;;;;;;5072519;28;20493;-31
2023/09/06 12:16:45;;;;;;;3.08;2.10;;;;;;;;;;5071311;28;20087;-36
2023/09/06 12:19:12;;;;;;;3.05;1.92;;;21.40;85.90;;;;;;5072796;28;20127;-31
2023/09/06 12:21:39;;;;;;;3.53;1.90;;;22.00;86.20;;;;;;5072962;28;20055;-31
2023/09/06 12:24:06;;;;;;;3.88;1.73;;;21.90;81.30;;;;;;5072490;28;20127;-32
2023/09/06 12:26:33;;;;;;;2.33;1.52;;;;;;;;;;5072659;28;20048;-33
2023/09/06 12:29:02;;;;;;;2.80;1.75;;;21.60;85.60;;;;;;5072377;28;20049;-31
2023/09/06 12:31:28;;;;;;;4.22;1.80;;;22.00;86.70;;;;;;5072312;28;20128;-33
2023/09/06 12:33:55;;;;;;;2.15;1.60;;;21.60;85.60;;;;;;5070788;28;20569;-31
2023/09/06 12:36:22;;;;;;;2.30;1.80;;;22.40;86.10;;;;;;5072148;28;20094;-32
2023/09/06 12:38:49;;;;;;;2.83;1.60;;;22.50;86.60;;;;;;5072580;28;20132;-31
2023/09/06 12:41:16;;;;;;;2.10;1.67;;;;;;;;;;5072331;28;20116;-37
2023/09/06 12:43:43;;;;;;;2.92;1.60;;;;;;;;;;5072030;28;20123;-34
2023/09/06 12:46:12;;;;;;;2.45;1.52;;;22.10;69.60;;;;;;5071936;28;20136;-37
2023/09/06 12:48:38;;;;;;;2.53;1.67;;;21.30;82.60;;;;;;5070797;28;20071;-31
2023/09/06 12:51:06;;;;;;;2.83;1.73;;;22.00;85.90;;;;;;5072419;28;20048;-31
2023/09/06 12:53:33;;;;;;;2.35;1.55;;;22.30;86.40;;;;;;5072238;28;20040;-31
2023/09/06 12:55:59;;;;;;;4.05;1.80;;;22.20;86.80;;;;;;5072259;28;20517;-31
2023/09/06 12:58:27;;;;;;;1.92;1.50;;;;;;;;;;5072571;28;20132;-36
2023/09/06 13:00:54;;;;;;;4.53;1.85;;;;;;;;;;5071957;28;20127;-35
2023/09/06 13:03:22;;;;;;;2.47;1.67;;;22.00;85.70;;;;;;5071608;28;20054;-31
2023/09/06 13:05:49;;;;;;;2.00;1.63;;;;;;;;;;5059957;28;20127;-31
2023/09/06 13:08:16;;;;;;;2.20;1.70;;;22.00;85.80;;;;;;5052059;28;20128;-35
2023/09/06 13:10:43;;;;;;;2.55;1.73;;;;;;;;;;5052134;28;20141;-35
2023/09/06 13:13:10;;;;;;;2.75;1.70;;;;;;;;;;5051782;28;20561;-38
2023/09/06 13:15:38;;;;;;;2.85;1.80;;;;;;;;;;5051745;28;20489;-35